»·PEaware :: UAL957 LSGG-KEWR

UAL957 :: LSGG-KEWR

FLIGHT INFORMATION

Flight Status: Arrived
Operator:
United Airlines
More flights by this operator :: More flights under this callsign
Pilot: Timothy W. (9658)
Aircraft: BOEING 767-300
(B763)
More flights by this aircraft type
Origin: LSGG Geneva
Switzerland
Destination: KEWR Newark Intl
United States
More flights between these airports :: More routes between these airports
Route: DIPI5A DIPIR UB37 IBABA UZ124 OBURO UH10 CHABY UM733 BRY UM976 KOPOR UY376 VESAN UL613 SANDY UL15 BIG UL9 GAVGO UL18 DIKAS/N0483F320 UL18 LIPGO REVNU PIKIL 57N020W 58N030W 58N040W 57N050W HOIST/N0481F360 BAREE YSC J563 COVAN HANAA FLOSI3
File this flight plan on PilotEdge
Remarks:
Altitude:
(Current/Filed)
30,000ft
Speed:
(Current/Filed)
488kts
Departed: 06-May-18 10:42 AM
Arrived: 06-May-18 07:34 PM
Distance/Time
Traveled:
3359nm/8:52
Distance/Time
To Go:
Arrived

Flight Plot

Page will automatically refresh every two minutes.

Flight plan parsing failed; only flown route is shown


Map Options




Map Legend


Flown Route
Filed Route
Departure Airport
Arrival Airport
Navaid (VOR, NDB)
Fix

Horizontal Profiles

Position Reports

Time Latitude Longitude Heading Altitude Ground
Speed
06-May-18 10:13 46.234314 6.111229 135 1375ft 0kts
06-May-18 10:14 46.234314 6.111229 135 1375ft 0kts
06-May-18 10:15 46.234314 6.111229 135 1375ft 0kts
06-May-18 10:16 46.234314 6.111229 135 1375ft 0kts
06-May-18 10:17 46.234314 6.111229 135 1375ft 0kts
06-May-18 10:18 46.234314 6.111229 135 1375ft 0kts
06-May-18 10:19 46.234314 6.111229 135 1375ft 0kts
06-May-18 10:20 46.234314 6.111229 135 1375ft 0kts
06-May-18 10:21 46.234314 6.111229 135 1375ft 0kts
06-May-18 10:22 46.234314 6.111229 135 1375ft 0kts
06-May-18 10:23 46.234314 6.111229 135 1375ft 0kts
06-May-18 10:24 46.234314 6.111229 135 1375ft 0kts
06-May-18 10:25 46.234684 6.110674 111 1375ft 2kts
06-May-18 10:26 46.234527 6.110018 44 1375ft 0kts
06-May-18 10:27 46.234527 6.110018 44 1375ft 0kts
06-May-18 10:28 46.235423 6.111323 43 1375ft 13kts
06-May-18 10:29 46.238821 6.113413 46 1375ft 14kts
06-May-18 10:30 46.241607 6.117466 45 1375ft 13kts
06-May-18 10:31 46.244217 6.121276 45 1375ft 12kts
06-May-18 10:32 46.247330 6.125884 45 1375ft 15kts
06-May-18 10:33 46.248318 6.126832 18 1375ft 0kts
06-May-18 10:34 46.248318 6.126832 18 1375ft 0kts
06-May-18 10:35 46.248318 6.126832 18 1375ft 0kts
06-May-18 10:36 46.249084 6.127191 13 1375ft 0kts
06-May-18 10:37 46.249084 6.127191 13 1375ft 0kts
06-May-18 10:38 46.249084 6.127191 13 1375ft 0kts
06-May-18 10:39 46.249575 6.127376 15 1375ft 8kts
06-May-18 10:40 46.250225 6.126830 226 1375ft 0kts
06-May-18 10:41 46.250221 6.126825 226 1375ft 0kts
06-May-18 10:42 46.234464 6.103654 225 1375ft 165kts
06-May-18 10:43 46.196417 6.049341 226 2359ft 195kts
06-May-18 10:44 46.151206 5.980814 228 3103ft 268kts
06-May-18 10:45 46.100013 5.902078 228 5514ft 273kts
06-May-18 10:46 46.060531 5.835410 250 7212ft 280kts
06-May-18 10:47 46.093015 5.755982 357 9117ft 275kts
06-May-18 10:48 46.169551 5.782679 16 10333ft 317kts
06-May-18 10:49 46.263480 5.823744 16 11408ft 378kts
06-May-18 10:50 46.366129 5.830524 336 13892ft 391kts
06-May-18 10:51 46.463547 5.756846 333 16096ft 404kts
06-May-18 10:52 46.558203 5.683594 333 18097ft 416kts
06-May-18 10:53 46.649970 5.608901 332 19929ft 427kts
06-May-18 10:54 46.754076 5.523061 332 21765ft 439kts
06-May-18 10:55 46.856888 5.426360 317 23360ft 455kts
06-May-18 10:56 46.921135 5.264322 304 24801ft 471kts
06-May-18 10:57 47.009023 5.131087 320 26232ft 473kts
06-May-18 10:58 47.104267 5.003998 320 27546ft 482kts
06-May-18 10:59 47.198263 4.878411 320 28505ft 496kts
06-May-18 11:00 47.296594 4.747477 320 29836ft 498kts
06-May-18 11:01 47.397152 4.611715 319 30044ft 495kts
06-May-18 11:02 47.498251 4.474372 319 30046ft 495kts
06-May-18 11:03 47.585030 4.355867 319 30055ft 495kts
06-May-18 11:04 47.675166 4.234588 322 30073ft 494kts
06-May-18 11:05 47.779780 4.102429 322 30076ft 494kts
06-May-18 11:06 47.883727 3.970161 322 30076ft 494kts
06-May-18 11:07 47.979181 3.848810 322 30073ft 494kts
06-May-18 11:08 48.054842 3.752234 321 30073ft 494kts
06-May-18 11:09 48.155376 3.622548 321 30073ft 494kts
06-May-18 11:10 48.259260 3.487693 321 30074ft 494kts
06-May-18 11:11 48.361494 3.354231 321 30074ft 494kts
06-May-18 11:12 48.477496 3.250373 339 30533ft 489kts
06-May-18 11:13 48.586748 3.179779 340 31808ft 484kts
06-May-18 11:14 48.692246 3.111865 340 32095ft 481kts
06-May-18 11:15 48.815145 3.032435 340 32103ft 486kts
06-May-18 11:16 48.933515 2.938992 334 32103ft 495kts
06-May-18 11:17 49.042798 2.848395 333 32097ft 485kts
06-May-18 11:18 49.158506 2.751364 332 32100ft 480kts
06-May-18 11:19 49.274782 2.652876 332 32100ft 480kts
06-May-18 11:20 49.390517 2.554294 332 32105ft 480kts
06-May-18 11:21 49.506888 2.454626 332 32122ft 479kts
06-May-18 11:22 49.605643 2.369613 332 32129ft 479kts
06-May-18 11:23 49.720399 2.270324 332 32129ft 479kts
06-May-18 11:24 49.836300 2.169490 332 32129ft 479kts
06-May-18 11:25 49.951523 2.068689 332 32125ft 479kts
06-May-18 11:26 50.066989 1.967111 332 32051ft 479kts
06-May-18 11:27 50.172496 1.874185 331 31999ft 478kts
06-May-18 11:28 50.283534 1.776404 331 31999ft 478kts
06-May-18 11:29 50.398588 1.673632 331 31999ft 478kts
06-May-18 11:30 50.513489 1.570339 331 31999ft 478kts
06-May-18 11:31 50.604595 1.488011 331 32000ft 478kts
06-May-18 11:32 50.699304 1.402030 331 32011ft 478kts
06-May-18 11:33 50.813382 1.297928 331 32082ft 479kts
06-May-18 11:34 50.927721 1.192990 331 32150ft 473kts
06-May-18 11:35 51.036576 1.083924 315 32143ft 471kts
06-May-18 11:36 51.103951 0.910148 292 32161ft 472kts
06-May-18 11:37 51.143517 0.764818 290 32157ft 472kts
06-May-18 11:38 51.184025 0.609766 290 32164ft 471kts
06-May-18 11:39 51.226713 0.443931 290 32182ft 471kts
06-May-18 11:40 51.275516 0.252630 290 32182ft 472kts
06-May-18 11:41 51.323811 0.061223 288 32181ft 471kts
06-May-18 11:42 51.351784 -0.126334 280 32172ft 469kts
06-May-18 11:43 51.378733 -0.325921 280 32120ft 469kts
06-May-18 11:44 51.404790 -0.527646 280 32011ft 468kts
06-May-18 11:45 51.430674 -0.731607 280 32143ft 470kts
06-May-18 11:46 51.455864 -0.933064 280 32037ft 469kts
06-May-18 11:47 51.480810 -1.133486 280 32002ft 467kts
06-May-18 11:48 51.510996 -1.333293 280 32065ft 467kts
06-May-18 11:49 51.540500 -1.535685 280 32114ft 467kts
06-May-18 11:50 51.568906 -1.733554 280 31996ft 467kts
06-May-18 11:51 51.597604 -1.936143 280 31997ft 467kts
06-May-18 11:52 51.624340 -2.127050 280 32112ft 468kts
06-May-18 11:53 51.652911 -2.328986 279 32135ft 467kts
06-May-18 11:54 51.680596 -2.531957 279 32084ft 467kts
06-May-18 11:55 51.707910 -2.735487 279 31998ft 467kts
06-May-18 11:56 51.734839 -2.939009 279 31998ft 466kts
06-May-18 11:57 51.761383 -3.141462 279 31999ft 465kts
06-May-18 11:58 51.818546 -3.327815 310 32006ft 479kts
06-May-18 11:58 51.895532 -3.456988 310 31999ft 480kts
06-May-18 11:59 51.987392 -3.611915 310 31999ft 480kts
06-May-18 12:00 52.079708 -3.768551 310 31999ft 479kts
06-May-18 12:01 52.171506 -3.925307 310 32000ft 480kts
06-May-18 12:02 52.262982 -4.082518 310 32000ft 480kts
06-May-18 12:03 52.354662 -4.239439 309 32002ft 479kts
06-May-18 12:04 52.445923 -4.398047 309 32002ft 479kts
06-May-18 12:05 52.536530 -4.556785 309 32002ft 479kts
06-May-18 12:06 52.623053 -4.709352 309 31997ft 479kts
06-May-18 12:07 52.712438 -4.867952 309 31996ft 479kts
06-May-18 12:08 52.801944 -5.027806 308 31997ft 478kts
06-May-18 12:09 52.886422 -5.178455 308 32001ft 475kts
06-May-18 12:10 52.975517 -5.338898 307 32019ft 475kts
06-May-18 12:11 53.061952 -5.501883 297 32099ft 466kts
06-May-18 12:12 53.125607 -5.686379 292 33159ft 459kts
06-May-18 12:13 53.186465 -5.870619 292 34200ft 454kts
06-May-18 12:14 53.246554 -6.054494 292 34990ft 452kts
06-May-18 12:15 53.306834 -6.238192 291 35704ft 449kts
06-May-18 12:16 53.365509 -6.419975 291 36116ft 447kts
06-May-18 12:17 53.422837 -6.599373 291 36130ft 445kts
06-May-18 12:18 53.480690 -6.781829 291 36130ft 445kts
06-May-18 12:19 53.538527 -6.965620 291 36133ft 445kts
06-May-18 12:20 53.595768 -7.148128 291 36130ft 440kts
06-May-18 12:21 53.652329 -7.328712 291 36123ft 435kts
06-May-18 12:22 53.707989 -7.509483 291 36131ft 433kts
06-May-18 12:23 53.763045 -7.689793 291 36148ft 432kts
06-May-18 12:24 53.817534 -7.869612 290 36147ft 431kts
06-May-18 12:25 53.871646 -8.049545 291 36149ft 431kts
06-May-18 12:27 53.926313 -8.230452 290 36158ft 431kts
06-May-18 12:28 53.980315 -8.412165 290 36153ft 431kts
06-May-18 12:29 54.033737 -8.593853 290 36153ft 431kts
06-May-18 12:30 54.087041 -8.776618 290 36156ft 431kts
06-May-18 12:31 54.139955 -8.959445 290 36154ft 431kts
06-May-18 12:32 54.192372 -9.141370 289 36163ft 431kts
06-May-18 12:33 54.245172 -9.324506 289 36160ft 430kts
06-May-18 12:34 54.297111 -9.508054 289 36157ft 429kts
06-May-18 12:35 54.348604 -9.691658 289 36157ft 429kts
06-May-18 12:36 54.399807 -9.875686 289 36154ft 429kts
06-May-18 12:37 54.450253 -10.058452 289 36156ft 429kts
06-May-18 12:38 54.508767 -10.238386 293 36163ft 434kts
06-May-18 12:39 54.570315 -10.416887 293 36149ft 434kts
06-May-18 12:40 54.630544 -10.593687 293 36150ft 433kts
06-May-18 12:41 54.691118 -10.772900 293 36148ft 433kts
06-May-18 12:42 54.751436 -10.952677 293 36149ft 433kts
06-May-18 12:43 54.811438 -11.132503 293 36160ft 435kts
06-May-18 12:44 54.872376 -11.314630 293 36155ft 436kts
06-May-18 12:45 54.930822 -11.492551 293 36155ft 434kts
06-May-18 12:46 54.988825 -11.670612 293 36153ft 430kts
06-May-18 12:47 55.046203 -11.848090 293 36150ft 425kts
06-May-18 12:48 55.103052 -12.025222 293 36152ft 423kts
06-May-18 12:49 55.160019 -12.202172 293 36153ft 422kts
06-May-18 12:50 55.216790 -12.380822 292 36158ft 422kts
06-May-18 12:51 55.273284 -12.560726 292 36154ft 422kts
06-May-18 12:52 55.329434 -12.740986 292 36157ft 422kts
06-May-18 12:53 55.385422 -12.922094 292 36153ft 422kts
06-May-18 12:54 55.441023 -13.103378 292 36155ft 422kts
06-May-18 12:55 55.497244 -13.285435 293 36162ft 424kts
06-May-18 12:56 55.552759 -13.468840 292 36156ft 425kts
06-May-18 12:57 55.608036 -13.653235 292 36151ft 425kts
06-May-18 12:58 55.663073 -13.838310 292 36151ft 425kts
06-May-18 12:59 55.717794 -14.023776 292 36149ft 425kts
06-May-18 13:00 55.772489 -14.208556 292 36155ft 425kts
06-May-18 13:01 55.826884 -14.394927 292 36158ft 425kts
06-May-18 13:02 55.880608 -14.581334 292 36156ft 425kts
06-May-18 13:03 55.934315 -14.769267 292 36152ft 425kts
06-May-18 13:04 55.987547 -14.957092 292 36151ft 426kts
06-May-18 13:05 56.033632 -15.150533 288 36160ft 427kts
06-May-18 13:06 56.078075 -15.347781 287 36156ft 428kts
06-May-18 13:07 56.121699 -15.545637 287 36155ft 428kts
06-May-18 13:08 56.165050 -15.744391 287 36154ft 428kts
06-May-18 13:09 56.208045 -15.943445 287 36153ft 429kts
06-May-18 13:10 56.250865 -16.142871 287 36160ft 431kts
06-May-18 13:11 56.294227 -16.344563 287 36162ft 436kts
06-May-18 13:12 56.337175 -16.549061 287 36156ft 438kts
06-May-18 13:13 56.379754 -16.754158 287 36155ft 438kts
06-May-18 13:14 56.421970 -16.959603 286 36155ft 438kts
06-May-18 13:15 56.464269 -17.166011 286 36159ft 439kts
06-May-18 13:16 56.505633 -17.369082 286 35985ft 439kts
06-May-18 13:17 56.546438 -17.573686 285 35644ft 438kts
06-May-18 13:18 56.586790 -17.778409 285 35638ft 439kts
06-May-18 13:19 56.626778 -17.983423 285 35637ft 439kts
06-May-18 13:20 56.666829 -18.188576 285 35641ft 439kts
06-May-18 13:21 56.707089 -18.397452 285 35641ft 439kts
06-May-18 13:22 56.746738 -18.607227 285 35640ft 439kts
06-May-18 13:23 56.786029 -18.817588 285 35639ft 439kts
06-May-18 13:24 56.824902 -19.028039 284 35638ft 439kts
06-May-18 13:25 56.863604 -19.236501 284 35642ft 440kts
06-May-18 13:26 56.902009 -19.447955 283 35641ft 439kts
06-May-18 13:27 56.939911 -19.660156 283 35641ft 440kts
06-May-18 13:28 56.977562 -19.873484 283 35639ft 439kts
06-May-18 13:29 57.011861 -20.086610 280 35640ft 437kts
06-May-18 13:30 57.042942 -20.301574 280 35643ft 435kts
06-May-18 13:31 57.072892 -20.516620 279 35642ft 434kts
06-May-18 13:32 57.102246 -20.731160 279 35641ft 434kts
06-May-18 13:33 57.131211 -20.945919 279 35640ft 434kts
06-May-18 13:34 57.160163 -21.161705 278 35646ft 436kts
06-May-18 13:35 57.189020 -21.377975 278 35644ft 436kts
06-May-18 13:36 57.217122 -21.595312 278 35643ft 436kts
06-May-18 13:37 57.244729 -21.812386 278 35642ft 436kts
06-May-18 13:38 57.272058 -22.030589 278 35641ft 436kts
06-May-18 13:39 57.299527 -22.248262 277 35646ft 436kts
06-May-18 13:40 57.326172 -22.466042 277 35645ft 436kts
06-May-18 13:41 57.352345 -22.684894 277 35644ft 436kts
06-May-18 13:42 57.378080 -22.903640 276 35644ft 438kts
06-May-18 13:43 57.403736 -23.125137 276 35647ft 441kts
06-May-18 13:44 57.429720 -23.347040 275 35647ft 440kts
06-May-18 13:45 57.454605 -23.568858 275 35646ft 440kts
06-May-18 13:46 57.479046 -23.791078 275 35645ft 440kts
06-May-18 13:47 57.502640 -24.009389 275 35645ft 440kts
06-May-18 13:48 57.526097 -24.225012 275 35649ft 440kts
06-May-18 13:49 57.549586 -24.447577 274 35649ft 440kts
06-May-18 13:50 57.572031 -24.666387 274 35636ft 440kts
06-May-18 13:51 57.594320 -24.887918 274 35634ft 440kts
06-May-18 13:52 57.616267 -25.110159 273 35635ft 443kts
06-May-18 13:53 57.639006 -25.337163 273 35637ft 445kts
06-May-18 13:54 57.660606 -25.563866 273 35637ft 445kts
06-May-18 13:55 57.681746 -25.791050 273 35637ft 445kts
06-May-18 13:56 57.702480 -26.018570 273 35636ft 445kts
06-May-18 13:57 57.723467 -26.246920 272 35639ft 445kts
06-May-18 13:58 57.743607 -26.475092 272 35638ft 445kts
06-May-18 13:59 57.763107 -26.703133 272 35638ft 445kts
06-May-18 14:00 57.782157 -26.931098 272 35635ft 446kts
06-May-18 14:01 57.801249 -27.161925 271 35640ft 451kts
06-May-18 14:02 57.820278 -27.393636 271 35639ft 451kts
06-May-18 14:03 57.838445 -27.626465 270 35639ft 451kts
06-May-18 14:03 57.853170 -27.819903 270 35637ft 451kts
06-May-18 14:05 57.873332 -28.091654 270 35638ft 451kts
06-May-18 14:06 57.890795 -28.323547 270 35642ft 450kts
06-May-18 14:07 57.907273 -28.556720 270 35639ft 450kts
06-May-18 14:08 57.923144 -28.788818 270 35639ft 450kts
06-May-18 14:08 57.936155 -28.984178 269 35639ft 453kts
06-May-18 14:09 57.951729 -29.216224 269 35674ft 452kts
06-May-18 14:10 57.966767 -29.450185 269 35667ft 450kts
06-May-18 14:11 57.981074 -29.683850 269 35668ft 449kts
06-May-18 14:12 57.994945 -29.917998 269 35668ft 450kts
06-May-18 14:13 58.005535 -30.151558 267 35668ft 448kts
06-May-18 14:14 58.014672 -30.384260 266 35667ft 447kts
06-May-18 14:15 58.022758 -30.616689 266 35807ft 445kts
06-May-18 14:16 58.030352 -30.849205 266 35999ft 445kts
06-May-18 14:17 58.037498 -31.080858 266 36000ft 448kts
06-May-18 14:18 58.044941 -31.312749 265 36001ft 451kts
06-May-18 14:19 58.051416 -31.546652 265 36001ft 452kts
06-May-18 14:20 58.057292 -31.778138 265 36000ft 452kts
06-May-18 14:21 58.062754 -32.010060 265 36000ft 452kts
06-May-18 14:22 58.068406 -32.243851 264 36001ft 452kts
06-May-18 14:23 58.073325 -32.480066 264 35998ft 451kts
06-May-18 14:24 58.077601 -32.716809 264 36003ft 452kts
06-May-18 14:25 58.081409 -32.953118 264 35999ft 452kts
06-May-18 14:26 58.085207 -33.191053 265 36002ft 454kts
06-May-18 14:27 58.088568 -33.429142 264 35999ft 454kts
06-May-18 14:28 58.091097 -33.666678 264 36001ft 454kts
06-May-18 14:29 58.093175 -33.905473 264 36003ft 453kts
06-May-18 14:30 58.094898 -34.143072 264 36003ft 454kts
06-May-18 14:31 58.096742 -34.380502 263 36003ft 453kts
06-May-18 14:32 58.097528 -34.618741 263 36000ft 453kts
06-May-18 14:33 58.097818 -34.855932 264 36000ft 454kts
06-May-18 14:34 58.097650 -35.096669 265 36002ft 457kts
06-May-18 14:35 58.097802 -35.335885 264 36001ft 457kts
06-May-18 14:37 58.096842 -35.574764 264 36001ft 456kts
06-May-18 14:38 58.095345 -35.814562 264 35998ft 457kts
06-May-18 14:39 58.093393 -36.054062 264 35998ft 456kts
06-May-18 14:40 58.091675 -36.293627 263 36001ft 456kts
06-May-18 14:41 58.088963 -36.533061 263 36002ft 456kts
06-May-18 14:42 58.085674 -36.772266 263 36000ft 456kts
06-May-18 14:43 58.081917 -37.011951 264 35998ft 457kts
06-May-18 14:44 58.078285 -37.252703 264 36000ft 461kts
06-May-18 14:45 58.073813 -37.494382 264 36001ft 461kts
06-May-18 14:46 58.068694 -37.735304 264 35999ft 461kts
06-May-18 14:47 58.063090 -37.976534 264 35998ft 461kts
06-May-18 14:48 58.057541 -38.217786 264 35998ft 461kts
06-May-18 14:49 58.051319 -38.459095 263 36000ft 461kts
06-May-18 14:50 58.044454 -38.697340 263 35999ft 461kts
06-May-18 14:51 58.037185 -38.933386 263 36000ft 462kts
06-May-18 14:52 58.030094 -39.156352 264 36002ft 466kts
06-May-18 14:53 58.022472 -39.395519 264 35997ft 466kts
06-May-18 14:54 58.013819 -39.635087 264 35999ft 466kts
06-May-18 14:55 58.004609 -39.876215 264 35999ft 466kts
06-May-18 14:56 57.992541 -40.117918 261 35999ft 465kts
06-May-18 14:57 57.978609 -40.359564 261 36002ft 465kts
06-May-18 14:58 57.963409 -40.601361 261 36000ft 465kts
06-May-18 14:59 57.947692 -40.842712 261 36002ft 465kts
06-May-18 15:00 57.931498 -41.083991 262 35997ft 465kts
06-May-18 15:01 57.915603 -41.325088 261 35998ft 464kts
06-May-18 15:02 57.898671 -41.564964 261 35998ft 464kts
06-May-18 15:03 57.881178 -41.804856 261 36001ft 464kts
06-May-18 15:04 57.863210 -42.044777 261 36002ft 464kts
06-May-18 15:05 57.845469 -42.284491 260 35999ft 464kts
06-May-18 15:06 57.826804 -42.523157 260 35997ft 464kts
06-May-18 15:07 57.807525 -42.761964 260 36000ft 464kts
06-May-18 15:08 57.787736 -43.001112 261 36000ft 464kts
06-May-18 15:09 57.768231 -43.238051 261 35997ft 461kts
06-May-18 15:10 57.747988 -43.474550 261 35997ft 461kts
06-May-18 15:11 57.726962 -43.712001 261 36001ft 464kts
06-May-18 15:12 57.705477 -43.949109 261 36000ft 464kts
06-May-18 15:13 57.683856 -44.186880 260 35999ft 464kts
06-May-18 15:14 57.661936 -44.423071 260 36000ft 464kts
06-May-18 15:15 57.639125 -44.659665 260 36000ft 464kts
06-May-18 15:16 57.615874 -44.895640 260 35999ft 464kts
06-May-18 15:17 57.592182 -45.131712 260 36001ft 462kts
06-May-18 15:18 57.568849 -45.366538 260 36001ft 461kts
06-May-18 15:19 57.544432 -45.600740 260 35998ft 462kts
06-May-18 15:20 57.519542 -45.834478 260 35998ft 461kts
06-May-18 15:21 57.494490 -46.065399 260 36001ft 461kts
06-May-18 15:22 57.469762 -46.295723 259 36004ft 462kts
06-May-18 15:23 57.444068 -46.525381 259 35999ft 461kts
06-May-18 15:24 57.417975 -46.753550 259 35998ft 461kts
06-May-18 15:25 57.391594 -46.980322 259 35998ft 456kts
06-May-18 15:26 57.365018 -47.209112 258 36002ft 454kts
06-May-18 15:27 57.337876 -47.437285 257 36000ft 455kts
06-May-18 15:28 57.310014 -47.665294 257 35999ft 455kts
06-May-18 15:29 57.281803 -47.892262 257 35999ft 455kts
06-May-18 15:30 57.253114 -48.119523 257 36000ft 454kts
06-May-18 15:31 57.224808 -48.346063 257 36000ft 454kts
06-May-18 15:32 57.195319 -48.572918 257 35999ft 454kts
06-May-18 15:33 57.165421 -48.798928 257 35999ft 454kts
06-May-18 15:34 57.135166 -49.024201 256 36000ft 452kts
06-May-18 15:35 57.105837 -49.244013 255 36000ft 443kts
06-May-18 15:36 57.075796 -49.462668 255 36000ft 443kts
06-May-18 15:37 57.045079 -49.681815 255 35998ft 443kts
06-May-18 15:38 57.014002 -49.900332 255 35999ft 442kts
06-May-18 15:39 56.972028 -50.111306 247 35998ft 443kts
06-May-18 15:40 56.923272 -50.318233 246 36000ft 443kts
06-May-18 15:41 56.872986 -50.523907 246 35999ft 443kts
06-May-18 15:42 56.822431 -50.728168 246 35986ft 443kts
06-May-18 15:43 56.771415 -50.932358 246 35943ft 442kts
06-May-18 15:44 56.720633 -51.134163 245 35945ft 435kts
06-May-18 15:45 56.670392 -51.334460 245 35944ft 436kts
06-May-18 15:46 56.619384 -51.533390 245 35943ft 436kts
06-May-18 15:47 56.567875 -51.732254 245 35943ft 436kts
06-May-18 15:48 56.516330 -51.929493 245 35941ft 436kts
06-May-18 15:49 56.464208 -52.127410 244 35943ft 436kts
06-May-18 15:50 56.412424 -52.325040 244 35947ft 436kts
06-May-18 15:51 56.359904 -52.521093 244 35945ft 436kts
06-May-18 15:52 56.307442 -52.715012 244 35945ft 436kts
06-May-18 15:53 56.255435 -52.905616 244 35943ft 434kts
06-May-18 15:54 56.203722 -53.093584 244 35942ft 431kts
06-May-18 15:55 56.151736 -53.283811 243 35946ft 432kts
06-May-18 15:56 56.099187 -53.472111 243 35945ft 432kts
06-May-18 15:57 56.045361 -53.663030 243 35944ft 431kts
06-May-18 15:58 55.990898 -53.854585 243 35943ft 432kts
06-May-18 15:59 55.936241 -54.045242 243 35942ft 432kts
06-May-18 16:00 55.881980 -54.235369 242 35945ft 432kts
06-May-18 16:01 55.827046 -54.424605 242 35945ft 432kts
06-May-18 16:02 55.771569 -54.613529 242 35943ft 432kts
06-May-18 16:03 55.715897 -54.801543 242 35942ft 432kts
06-May-18 16:04 55.659838 -54.989354 242 35941ft 432kts
06-May-18 16:05 55.604028 -55.176359 242 35945ft 429kts
06-May-18 16:06 55.548048 -55.362366 242 35944ft 429kts
06-May-18 16:07 55.491756 -55.546690 242 35942ft 429kts
06-May-18 16:08 55.436010 -55.727707 242 35945ft 429kts
06-May-18 16:09 55.379111 -55.911058 242 35944ft 429kts
06-May-18 16:10 55.322496 -56.092083 242 35951ft 429kts
06-May-18 16:11 55.266930 -56.270941 241 35958ft 423kts
06-May-18 16:12 55.210229 -56.449967 241 35955ft 423kts
06-May-18 16:13 55.152867 -56.629377 241 35954ft 422kts
06-May-18 16:14 55.095322 -56.807980 241 35952ft 423kts
06-May-18 16:15 55.037779 -56.983666 237 34231ft 420kts
06-May-18 16:16 54.970568 -57.143214 236 33960ft 412kts
06-May-18 16:17 54.903109 -57.299385 237 33952ft 400kts
06-May-18 16:18 54.836615 -57.450674 237 33957ft 397kts
06-May-18 16:19 54.770013 -57.601007 237 33952ft 396kts
06-May-18 16:20 54.702747 -57.751868 237 33957ft 397kts
06-May-18 16:21 54.635284 -57.902250 237 33958ft 397kts
06-May-18 16:21 54.578784 -58.027480 237 33951ft 397kts
06-May-18 16:22 54.512832 -58.174147 237 33968ft 398kts
06-May-18 16:23 54.445224 -58.323217 237 33963ft 397kts
06-May-18 16:24 54.377274 -58.471353 236 33962ft 398kts
06-May-18 16:25 54.309529 -58.618073 236 33965ft 397kts
06-May-18 16:26 54.241439 -58.764661 237 33962ft 397kts
06-May-18 16:27 54.173882 -58.909240 236 33957ft 396kts
06-May-18 16:28 54.105507 -59.054718 236 33956ft 394kts
06-May-18 16:29 54.043266 -59.187815 236 33966ft 394kts
06-May-18 16:30 53.975051 -59.332052 235 33965ft 394kts
06-May-18 16:31 53.906101 -59.476381 235 33964ft 395kts
06-May-18 16:32 53.836737 -59.620653 235 33964ft 395kts
06-May-18 16:33 53.767301 -59.764228 235 33954ft 394kts
06-May-18 16:34 53.697730 -59.907261 236 33954ft 395kts
06-May-18 16:35 53.628197 -60.049398 235 33954ft 395kts
06-May-18 16:36 53.559315 -60.190816 235 33964ft 394kts
06-May-18 16:37 53.489390 -60.332775 235 33962ft 395kts
06-May-18 16:38 53.419170 -60.473965 235 33967ft 395kts
06-May-18 16:39 53.348607 -60.614986 234 33960ft 396kts
06-May-18 16:40 53.277807 -60.755663 235 33961ft 396kts
06-May-18 16:41 53.207037 -60.895497 235 33960ft 395kts
06-May-18 16:42 53.135822 -61.035439 234 33956ft 395kts
06-May-18 16:43 53.066481 -61.171974 235 33965ft 377kts
06-May-18 16:44 53.000473 -61.300979 236 33967ft 356kts
06-May-18 16:45 52.938115 -61.421718 237 33964ft 342kts
06-May-18 16:46 52.876146 -61.541112 237 33961ft 342kts
06-May-18 16:47 52.813969 -61.660226 237 33957ft 342kts
06-May-18 16:48 52.751691 -61.778963 237 33960ft 342kts
06-May-18 16:49 52.689401 -61.897135 237 33955ft 343kts
06-May-18 16:50 52.626962 -62.015039 236 33949ft 342kts
06-May-18 16:51 52.565227 -62.131499 237 33965ft 343kts
06-May-18 16:52 52.502644 -62.249878 235 33971ft 342kts
06-May-18 16:53 52.441424 -62.364062 237 33989ft 342kts
06-May-18 16:54 52.378380 -62.480974 236 34004ft 343kts
06-May-18 16:55 52.315166 -62.597590 236 34000ft 342kts
06-May-18 16:56 52.252048 -62.713495 237 33997ft 342kts
06-May-18 16:58 52.188554 -62.829558 237 33994ft 343kts
06-May-18 16:59 52.125159 -62.944920 237 33999ft 344kts
06-May-18 17:00 52.061065 -63.061004 236 34011ft 345kts
06-May-18 17:01 51.998045 -63.175775 236 34044ft 348kts
06-May-18 17:02 51.933333 -63.292452 235 34028ft 349kts
06-May-18 17:03 51.869182 -63.407119 234 34032ft 349kts
06-May-18 17:04 51.804023 -63.522983 234 34040ft 348kts
06-May-18 17:05 51.739370 -63.637391 234 34035ft 348kts
06-May-18 17:06 51.674026 -63.752507 234 34035ft 349kts
06-May-18 17:07 51.609046 -63.866447 234 34033ft 348kts
06-May-18 17:08 51.543752 -63.980410 234 34028ft 347kts
06-May-18 17:09 51.478315 -64.094111 234 34026ft 348kts
06-May-18 17:10 51.413683 -64.207331 234 34057ft 349kts
06-May-18 17:11 51.348188 -64.320466 233 34063ft 347kts
06-May-18 17:12 51.282484 -64.433164 234 34060ft 347kts
06-May-18 17:13 51.216492 -64.545788 233 34056ft 347kts
06-May-18 17:14 51.150548 -64.657802 233 34056ft 348kts
06-May-18 17:15 51.084200 -64.770017 233 34055ft 348kts
06-May-18 17:16 51.017801 -64.881850 232 34057ft 349kts
06-May-18 17:17 50.951803 -64.992429 232 34058ft 341kts
06-May-18 17:18 50.887838 -65.099168 232 34056ft 328kts
06-May-18 17:19 50.829599 -65.197321 231 34077ft 327kts
06-May-18 17:20 50.767214 -65.300971 232 34075ft 328kts
06-May-18 17:21 50.704403 -65.404596 231 34069ft 328kts
06-May-18 17:22 50.641379 -65.508093 231 34066ft 327kts
06-May-18 17:23 50.578436 -65.611023 231 34064ft 326kts
06-May-18 17:24 50.515023 -65.714263 231 34059ft 327kts
06-May-18 17:25 50.451929 -65.816590 231 34057ft 328kts
06-May-18 17:26 50.389538 -65.917368 231 34072ft 327kts
06-May-18 17:27 50.326510 -66.018761 231 34068ft 327kts
06-May-18 17:28 50.263012 -66.120698 232 34087ft 328kts
06-May-18 17:29 50.199902 -66.222631 231 34080ft 328kts
06-May-18 17:30 50.136309 -66.323923 230 34081ft 328kts
06-May-18 17:31 50.072420 -66.425093 231 34078ft 328kts
06-May-18 17:32 50.008340 -66.526116 231 34072ft 328kts
06-May-18 17:33 49.944205 -66.626818 231 34070ft 328kts
06-May-18 17:34 49.880143 -66.726997 231 34068ft 329kts
06-May-18 17:35 49.815831 -66.827157 231 34063ft 328kts
06-May-18 17:36 49.751382 -66.927132 231 34057ft 328kts
06-May-18 17:37 49.686932 -67.026751 231 34058ft 332kts
06-May-18 17:38 49.622277 -67.126629 230 34090ft 338kts
06-May-18 17:39 49.555884 -67.229484 229 34097ft 342kts
06-May-18 17:40 49.489629 -67.330777 229 34092ft 343kts
06-May-18 17:41 49.423704 -67.431039 229 34109ft 343kts
06-May-18 17:42 49.356264 -67.533198 229 34108ft 343kts
06-May-18 17:43 49.288725 -67.635058 229 34102ft 343kts
06-May-18 17:44 49.221681 -67.735781 229 34101ft 343kts
06-May-18 17:45 49.153887 -67.837207 229 34098ft 342kts
06-May-18 17:46 49.086111 -67.938188 228 34093ft 339kts
06-May-18 17:47 49.019441 -68.037150 228 34089ft 331kts
06-May-18 17:48 48.954860 -68.133129 228 34109ft 324kts
06-May-18 17:49 48.890405 -68.228959 228 34101ft 325kts
06-May-18 17:50 48.825732 -68.324008 227 34093ft 325kts
06-May-18 17:51 48.760820 -68.418930 227 34085ft 325kts
06-May-18 17:52 48.695576 -68.513932 227 34083ft 325kts
06-May-18 17:53 48.630427 -68.608454 227 34078ft 325kts
06-May-18 17:54 48.565335 -68.702515 227 34077ft 325kts
06-May-18 17:55 48.499843 -68.796805 227 34071ft 325kts
06-May-18 17:56 48.437667 -68.886014 228 34091ft 325kts
06-May-18 17:57 48.371902 -68.980034 227 34091ft 330kts
06-May-18 17:58 48.305110 -69.075144 227 34084ft 334kts
06-May-18 17:59 48.239346 -69.169427 227 34105ft 337kts
06-May-18 18:00 48.171336 -69.265985 226 34102ft 338kts
06-May-18 18:01 48.095160 -69.347435 219 34078ft 343kts
06-May-18 18:02 48.015096 -69.423001 218 34068ft 343kts
06-May-18 18:03 47.934721 -69.497697 217 34066ft 344kts
06-May-18 18:04 47.854045 -69.572260 218 34048ft 345kts
06-May-18 18:05 47.773194 -69.646674 218 34042ft 344kts
06-May-18 18:06 47.693193 -69.720027 217 34066ft 343kts
06-May-18 18:07 47.611962 -69.794225 218 34095ft 344kts
06-May-18 18:08 47.531062 -69.867878 217 34110ft 343kts
06-May-18 18:09 47.449997 -69.941384 218 34108ft 344kts
06-May-18 18:10 47.370885 -70.012874 218 34122ft 344kts
06-May-18 18:11 47.290303 -70.085444 217 34103ft 342kts
06-May-18 18:12 47.218627 -70.150561 217 34090ft 343kts
06-May-18 18:13 47.137393 -70.223578 217 34074ft 343kts
06-May-18 18:14 47.056537 -70.295693 217 34067ft 343kts
06-May-18 18:15 46.975866 -70.367323 216 34063ft 339kts
06-May-18 18:16 46.895635 -70.438328 215 34060ft 335kts
06-May-18 18:17 46.816227 -70.508327 216 34059ft 334kts
06-May-18 18:18 46.737551 -70.577431 215 34052ft 334kts
06-May-18 18:19 46.658040 -70.647035 215 34052ft 335kts
06-May-18 18:20 46.579105 -70.715916 215 34047ft 335kts
06-May-18 18:21 46.499573 -70.785066 215 34049ft 334kts
06-May-18 18:22 46.422721 -70.851670 215 34072ft 340kts
06-May-18 18:23 46.340801 -70.922429 215 34063ft 346kts
06-May-18 18:24 46.257460 -70.994142 215 34056ft 353kts
06-May-18 18:25 46.172534 -71.066962 215 34056ft 357kts
06-May-18 18:26 46.087676 -71.140100 215 34075ft 359kts
06-May-18 18:27 46.001864 -71.213595 214 34048ft 358kts
06-May-18 18:28 45.916772 -71.285847 214 34025ft 359kts
06-May-18 18:29 45.831371 -71.358027 214 34013ft 357kts
06-May-18 18:30 45.746229 -71.429707 215 34010ft 359kts
06-May-18 18:31 45.660458 -71.501688 214 34011ft 359kts
06-May-18 18:32 45.575043 -71.573093 215 34007ft 359kts
06-May-18 18:33 45.489382 -71.644469 214 34004ft 358kts
06-May-18 18:34 45.406804 -71.713014 215 34022ft 359kts
06-May-18 18:35 45.320850 -71.784127 215 34024ft 357kts
06-May-18 18:36 45.243131 -71.865453 220 34018ft 356kts
06-May-18 18:36 45.177417 -71.935497 219 34026ft 356kts
06-May-18 18:38 45.085695 -72.032632 219 34028ft 352kts
06-May-18 18:39 45.010812 -72.111639 219 34040ft 343kts
06-May-18 18:40 44.935827 -72.191422 217 34038ft 337kts
06-May-18 18:41 44.860911 -72.270066 218 34040ft 337kts
06-May-18 18:42 44.786575 -72.347665 219 34032ft 337kts
06-May-18 18:43 44.709641 -72.420262 213 33971ft 322kts
06-May-18 18:44 44.638861 -72.477841 216 32759ft 289kts
06-May-18 18:45 44.558757 -72.543005 219 26091ft 402kts
06-May-18 18:46 44.456880 -72.624894 219 26033ft 438kts
06-May-18 18:47 44.357835 -72.704175 219 26030ft 439kts
06-May-18 18:48 44.254245 -72.786867 219 26022ft 438kts
06-May-18 18:48 44.167845 -72.855586 219 26018ft 438kts
06-May-18 18:49 44.062616 -72.938975 219 26016ft 439kts
06-May-18 18:50 43.956152 -73.023059 218 26022ft 445kts
06-May-18 18:51 43.849167 -73.107158 216 26008ft 452kts
06-May-18 18:52 43.740660 -73.193122 215 26015ft 459kts
06-May-18 18:53 43.629689 -73.279684 215 26010ft 459kts
06-May-18 18:54 43.519484 -73.365196 215 26008ft 459kts
06-May-18 18:55 43.409888 -73.449886 215 25999ft 459kts
06-May-18 18:56 43.300061 -73.534393 215 26002ft 460kts
06-May-18 18:57 43.188836 -73.615389 206 25466ft 464kts
06-May-18 18:58 43.065336 -73.668918 203 24025ft 471kts
06-May-18 18:59 42.945247 -73.719665 202 24018ft 426kts
06-May-18 19:00 42.838138 -73.764870 198 24021ft 402kts
06-May-18 19:01 42.734068 -73.808820 199 24019ft 401kts
06-May-18 19:02 42.628989 -73.856016 199 24018ft 401kts
06-May-18 19:03 42.523183 -73.903304 199 24016ft 401kts
06-May-18 19:04 42.421243 -73.948714 199 24032ft 401kts
06-May-18 19:05 42.315730 -73.995551 199 24028ft 401kts
06-May-18 19:06 42.211759 -74.041538 199 24025ft 401kts
06-May-18 19:07 42.106394 -74.088011 199 23998ft 401kts
06-May-18 19:08 42.005012 -74.133199 199 23933ft 366kts
06-May-18 19:09 41.910311 -74.174846 199 23533ft 361kts
06-May-18 19:11 41.814623 -74.216578 201 22142ft 373kts
06-May-18 19:12 41.716903 -74.259142 201 20587ft 370kts
06-May-18 19:13 41.620823 -74.300821 200 19055ft 367kts
06-May-18 19:14 41.526005 -74.341821 200 17552ft 365kts
06-May-18 19:15 41.435311 -74.380932 199 16105ft 362kts
06-May-18 19:16 41.357043 -74.414596 199 16006ft 365kts
06-May-18 19:17 41.279055 -74.448045 199 15977ft 363kts
06-May-18 19:18 41.189538 -74.486343 199 13862ft 362kts
06-May-18 19:19 41.095059 -74.526620 198 11751ft 358kts
06-May-18 19:20 40.999663 -74.544407 187 10477ft 332kts
06-May-18 19:21 40.918137 -74.552040 188 9724ft 274kts
06-May-18 19:22 40.843988 -74.558957 187 7151ft 271kts
06-May-18 19:23 40.769690 -74.556890 180 7005ft 270kts
06-May-18 19:24 40.695107 -74.552977 180 7003ft 270kts
06-May-18 19:25 40.624026 -74.530514 146 6386ft 273kts
06-May-18 19:26 40.562302 -74.473400 145 5973ft 270kts
06-May-18 19:27 40.502482 -74.415449 127 4994ft 261kts
06-May-18 19:28 40.503421 -74.332676 73 3763ft 229kts
06-May-18 19:29 40.532355 -74.266093 23 2220ft 209kts
06-May-18 19:30 40.580378 -74.235912 25 1713ft 183kts
06-May-18 19:31 40.624359 -74.208035 25 1254ft 163kts
06-May-18 19:32 40.660337 -74.185193 26 477ft 146kts
06-May-18 19:33 40.692771 -74.164486 24 29ft 49kts
06-May-18 19:34 40.696961 -74.162933 355 29ft 0kts
06-May-18 19:35 40.698416 -74.163226 303 29ft 2kts
06-May-18 19:36 40.698417 -74.163229 302 29ft 0kts
06-May-18 19:37 40.698688 -74.163977 296 29ft 12kts
06-May-18 19:38 40.698066 -74.167808 205 29ft 12kts
06-May-18 19:39 40.695274 -74.170113 269 29ft 7kts
06-May-18 19:40 40.695211 -74.170855 261 29ft 0kts
06-May-18 19:41 40.695211 -74.170855 261 29ft 0kts
06-May-18 19:42 40.695211 -74.170855 261 29ft 0kts
06-May-18 19:43 40.695211 -74.170855 261 29ft 0kts
06-May-18 19:44 40.695211 -74.170855 261 29ft 0kts
06-May-18 19:45 40.694867 -74.172381 200 29ft 4kts
06-May-18 19:46 40.694733 -74.172650 233 29ft 0kts
06-May-18 19:47 40.694733 -74.172650 233 29ft 0kts
06-May-18 19:48 40.694733 -74.172650 233 29ft 0kts
06-May-18 19:49 40.694733 -74.172650 233 29ft 0kts

Navigation Log

Ident Type
Flight plan parsing failed, navigation log unavailable